Time;durP1;ratioP1;P1;durP2;ratioP2;P2;SDS_P1;SDS_P2;PMS_P1;PMS_P2;Temp;Humidity;BMP_temperature;BMP_pressure;BME280_temperature;BME280_humidity;BME280_pressure;Samples;Min_cycle;Max_cycle;Signal;HPM_P1;HPM_P2
2023/10/24 00:00:03;;;;;;;15.50;6.65;;;9.80;92.30;;;;;;6215294;28;20413;-83
2023/10/24 00:03:05;;;;;;;13.48;6.07;;;9.80;92.40;;;;;;6196946;28;20100;-84
2023/10/24 00:06:07;;;;;;;14.93;6.90;;;9.80;92.30;;;;;;6219729;28;20050;-82
2023/10/24 00:09:08;;;;;;;17.83;6.60;;;9.80;92.20;;;;;;6195521;28;20410;-83
2023/10/24 00:12:11;;;;;;;14.95;6.43;;;9.70;92.00;;;;;;6219147;28;20052;-83
2023/10/24 00:15:12;;;;;;;21.75;7.72;;;9.60;91.80;;;;;;6193047;28;20057;-84
2023/10/24 00:18:14;;;;;;;21.38;8.00;;;9.60;91.90;;;;;;6219283;28;20406;-84
2023/10/24 00:21:16;;;;;;;15.27;7.38;;;9.50;92.00;;;;;;6196028;28;20054;-84
2023/10/24 00:24:17;;;;;;;16.73;7.88;;;9.50;92.00;;;;;;6220363;28;20057;-84
2023/10/24 00:27:19;;;;;;;20.80;8.90;;;9.50;92.10;;;;;;6197524;28;20069;-84
2023/10/24 00:30:20;;;;;;;19.88;8.93;;;9.50;92.20;;;;;;6214489;28;20168;-83
2023/10/24 00:33:22;;;;;;;16.38;8.32;;;9.50;92.20;;;;;;6196061;28;20058;-82
2023/10/24 00:36:24;;;;;;;18.65;8.45;;;9.50;92.20;;;;;;6219429;28;20053;-83
2023/10/24 00:39:25;;;;;;;20.17;8.88;;;9.40;92.20;;;;;;6195788;28;20061;-83
2023/10/24 00:42:27;;;;;;;18.08;8.38;;;9.30;92.10;;;;;;6219890;28;20046;-83
2023/10/24 00:45:29;;;;;;;22.55;10.07;;;9.30;92.00;;;;;;6225371;22;20061;-78
2023/10/24 00:48:32;;;;;;;22.13;9.18;;;9.20;92.00;;;;;;6193537;28;20054;-78
2023/10/24 00:51:34;;;;;;;17.95;8.38;;;9.10;92.00;;;;;;6218236;28;20104;-78
2023/10/24 00:54:35;;;;;;;16.08;7.65;;;9.10;91.90;;;;;;6194978;28;20073;-77
2023/10/24 00:57:37;;;;;;;21.75;10.05;;;9.10;91.90;;;;;;6217015;28;20049;-79
2023/10/24 01:00:39;;;;;;;23.73;8.93;;;9.10;92.10;;;;;;6193480;28;20061;-78
2023/10/24 01:03:41;;;;;;;18.17;8.88;;;9.10;92.10;;;;;;6170377;28;20370;-78
2023/10/24 01:06:43;;;;;;;17.15;9.07;;;9.10;92.00;;;;;;6217671;28;20172;-79
2023/10/24 01:09:44;;;;;;;16.58;9.02;;;9.10;92.00;;;;;;6194515;28;20631;-78
2023/10/24 01:12:46;;;;;;;15.45;8.82;;;9.10;92.10;;;;;;6215563;28;20060;-79
2023/10/24 01:15:48;;;;;;;18.05;9.70;;;9.20;92.20;;;;;;6194262;28;20425;-77
2023/10/24 01:18:50;;;;;;;18.00;8.45;;;9.20;92.30;;;;;;6169873;28;20059;-77
2023/10/24 01:21:51;;;;;;;15.48;7.90;;;9.30;92.20;;;;;;6217718;28;20050;-78
2023/10/24 01:24:53;;;;;;;20.48;8.00;;;9.30;92.30;;;;;;6194462;28;20061;-78
2023/10/24 01:27:54;;;;;;;14.77;8.32;;;9.40;92.30;;;;;;6212162;28;20057;-79
2023/10/24 01:30:56;;;;;;;18.52;8.63;;;9.40;92.30;;;;;;6194155;28;20046;-78
2023/10/24 01:33:58;;;;;;;13.70;7.72;;;9.50;92.30;;;;;;6169887;28;20061;-78
2023/10/24 01:36:59;;;;;;;15.60;7.95;;;9.50;92.40;;;;;;6220164;28;20057;-78
2023/10/24 01:40:01;;;;;;;15.00;8.25;;;9.50;92.40;;;;;;6198551;28;20108;-78
2023/10/24 01:43:02;;;;;;;16.55;7.82;;;9.60;92.40;;;;;;6214712;28;20049;-77
2023/10/24 01:46:04;;;;;;;11.35;6.22;;;9.50;92.30;;;;;;6196223;28;20065;-78
2023/10/24 01:49:06;;;;;;;16.40;6.90;;;9.60;92.30;;;;;;6222100;28;20050;-78
2023/10/24 01:52:08;;;;;;;14.93;7.22;;;9.60;92.30;;;;;;6198174;28;20068;-78
2023/10/24 01:55:09;;;;;;;14.32;7.03;;;9.70;92.20;;;;;;6221995;28;20183;-78
2023/10/24 01:58:11;;;;;;;12.05;6.57;;;9.70;92.30;;;;;;6199284;28;20448;-78
2023/10/24 02:01:13;;;;;;;13.55;6.75;;;9.80;92.30;;;;;;6219901;28;20056;-78
2023/10/24 02:04:14;;;;;;;12.02;6.45;;;9.80;92.20;;;;;;6198021;28;20241;-78
2023/10/24 02:07:16;;;;;;;11.93;6.00;;;9.80;92.20;;;;;;6218988;28;20124;-78
2023/10/24 02:10:18;;;;;;;14.95;5.85;;;9.80;92.30;;;;;;6198166;28;20066;-78
2023/10/24 02:13:19;;;;;;;12.60;5.10;;;9.90;92.30;;;;;;6213243;28;20568;-78
2023/10/24 02:16:21;;;;;;;15.95;6.07;;;10.00;91.80;;;;;;6197569;28;20094;-78
2023/10/24 02:19:23;;;;;;;12.63;5.40;;;10.00;91.80;;;;;;6220878;28;20184;-78
2023/10/24 02:22:25;;;;;;;13.30;5.03;;;10.00;91.90;;;;;;6197642;28;20050;-78
2023/10/24 02:25:26;;;;;;;11.13;5.53;;;10.00;91.60;;;;;;6221029;28;20139;-78
2023/10/24 02:28:28;;;;;;;10.27;4.72;;;10.10;91.70;;;;;;6202430;28;20049;-78
2023/10/24 02:31:29;;;;;;;11.55;5.13;;;10.00;91.50;;;;;;6198264;28;20050;-78
2023/10/24 02:34:31;;;;;;;11.75;5.72;;;10.10;91.50;;;;;;6220751;28;20093;-77
2023/10/24 02:37:33;;;;;;;12.90;5.35;;;10.10;91.30;;;;;;6197518;28;20054;-78
2023/10/24 02:40:34;;;;;;;12.60;5.45;;;10.00;91.40;;;;;;6220630;28;20057;-78
2023/10/24 02:43:36;;;;;;;12.00;5.03;;;10.00;91.50;;;;;;6200326;28;20053;-78
2023/10/24 02:46:38;;;;;;;20.75;6.68;;;10.10;91.50;;;;;;6196100;28;20058;-78
2023/10/24 02:49:39;;;;;;;13.27;6.13;;;10.10;91.60;;;;;;6219774;28;20062;-78
2023/10/24 02:52:41;;;;;;;14.23;5.57;;;10.10;91.50;;;;;;6195763;28;20608;-78
2023/10/24 02:55:43;;;;;;;11.95;5.65;;;10.10;91.50;;;;;;6220233;28;20061;-78
2023/10/24 02:58:44;;;;;;;15.07;6.00;;;10.10;91.40;;;;;;6206086;28;20050;-78
2023/10/24 03:01:46;;;;;;;14.70;6.55;;;10.20;91.50;;;;;;6197026;28;20054;-78
2023/10/24 03:04:48;;;;;;;16.85;7.43;;;10.20;91.70;;;;;;6219888;28;20056;-79
2023/10/24 03:07:49;;;;;;;18.30;7.20;;;10.20;91.60;;;;;;6193462;28;20069;-78
2023/10/24 03:10:51;;;;;;;22.90;8.13;;;10.30;91.60;;;;;;6219924;28;20080;-79
2023/10/24 03:13:53;;;;;;;14.80;7.50;;;10.20;91.50;;;;;;6203447;28;20659;-79
2023/10/24 03:16:55;;;;;;;15.32;7.07;;;10.20;91.70;;;;;;6196380;28;20509;-79
2023/10/24 03:19:56;;;;;;;23.30;8.68;;;10.20;91.80;;;;;;6219332;28;20180;-80
2023/10/24 03:22:58;;;;;;;22.45;10.07;;;10.20;91.90;;;;;;6196352;28;20133;-79
2023/10/24 03:25:59;;;;;;;22.23;10.20;;;10.30;92.00;;;;;;6219653;28;20069;-78
2023/10/24 03:29:01;;;;;;;22.02;10.18;;;10.30;92.00;;;;;;6206624;28;20054;-78
2023/10/24 03:32:03;;;;;;;17.50;8.20;;;10.20;92.00;;;;;;6196706;28;20494;-78
2023/10/24 03:35:04;;;;;;;15.90;7.20;;;10.30;92.00;;;;;;6218617;28;20066;-78
2023/10/24 03:38:06;;;;;;;18.17;8.30;;;10.20;91.90;;;;;;6196157;28;20510;-79
2023/10/24 03:41:07;;;;;;;16.58;7.88;;;10.30;92.10;;;;;;6219550;28;20109;-78
2023/10/24 03:44:09;;;;;;;17.80;7.75;;;10.20;92.00;;;;;;6204226;28;20516;-78
2023/10/24 03:47:11;;;;;;;16.95;8.80;;;10.20;92.00;;;;;;6195151;28;20216;-78
2023/10/24 03:50:13;;;;;;;25.65;11.45;;;10.20;91.90;;;;;;6219059;28;20628;-78
2023/10/24 03:53:15;;;;;;;23.52;12.65;;;10.20;92.00;;;;;;6195490;28;20506;-78
2023/10/24 03:56:16;;;;;;;27.27;12.93;;;10.20;92.10;;;;;;6218867;28;20061;-78
2023/10/24 03:59:18;;;;;;;26.10;12.68;;;10.30;92.10;;;;;;6204085;28;20065;-79
2023/10/24 04:02:20;;;;;;;27.55;11.20;;;10.30;92.20;;;;;;6219960;28;20053;-78
2023/10/24 04:05:21;;;;;;;20.40;10.10;;;10.30;92.10;;;;;;6193391;28;20498;-78
2023/10/24 04:08:23;;;;;;;21.75;10.60;;;10.30;92.10;;;;;;6195270;28;20498;-78
2023/10/24 04:11:24;;;;;;;22.23;10.98;;;10.30;92.10;;;;;;6218712;28;20081;-78
2023/10/24 04:14:26;;;;;;;25.88;10.85;;;10.30;92.20;;;;;;6208997;28;20054;-78
2023/10/24 04:17:28;;;;;;;22.25;10.90;;;10.30;92.20;;;;;;6195218;28;20054;-78
2023/10/24 04:20:30;;;;;;;21.52;10.60;;;10.30;92.20;;;;;;6218423;28;20567;-77
2023/10/24 04:23:32;;;;;;;22.67;11.18;;;10.30;92.20;;;;;;6195163;28;20054;-77
2023/10/24 04:26:34;;;;;;;24.70;11.13;;;10.30;92.30;;;;;;6218381;28;20582;-78
2023/10/24 04:29:35;;;;;;;26.50;12.55;;;10.30;92.30;;;;;;6192189;28;20061;-77
2023/10/24 04:32:37;;;;;;;25.88;11.10;;;10.30;92.20;;;;;;6218338;28;20061;-77
2023/10/24 04:35:39;;;;;;;22.90;12.15;;;10.30;92.40;;;;;;6195274;28;20521;-77
2023/10/24 04:38:40;;;;;;;22.92;11.20;;;10.40;92.40;;;;;;6218257;28;20057;-78
2023/10/24 04:41:42;;;;;;;24.25;12.35;;;10.40;92.50;;;;;;6195059;28;20489;-78
2023/10/24 04:44:43;;;;;;;23.83;12.52;;;10.30;92.20;;;;;;6207404;28;20066;-77
2023/10/24 04:47:45;;;;;;;27.25;12.43;;;10.30;92.30;;;;;;6218186;28;20440;-77
2023/10/24 04:50:47;;;;;;;23.73;9.90;;;10.30;92.30;;;;;;6194833;28;20054;-77
2023/10/24 04:53:48;;;;;;;21.90;9.80;;;10.30;92.50;;;;;;6218240;28;20064;-78
2023/10/24 04:56:50;;;;;;;18.92;8.95;;;10.30;92.50;;;;;;6194737;28;20061;-77
2023/10/24 04:59:51;;;;;;;19.10;8.85;;;10.30;92.60;;;;;;6213836;28;20921;-77
2023/10/24 05:02:53;;;;;;;20.42;9.10;;;10.40;92.60;;;;;;6194749;28;20057;-77
2023/10/24 05:05:55;;;;;;;23.10;9.55;;;10.30;92.60;;;;;;6216252;28;20151;-77
2023/10/24 05:08:56;;;;;;;18.05;7.72;;;10.40;92.60;;;;;;6194890;28;20050;-77
2023/10/24 05:11:58;;;;;;;19.25;9.40;;;10.40;92.70;;;;;;6221053;28;20516;-77
2023/10/24 05:15:00;;;;;;;18.20;8.23;;;10.50;92.70;;;;;;6196548;28;20054;-77
2023/10/24 05:18:02;;;;;;;23.70;9.63;;;10.50;92.60;;;;;;6221299;28;20058;-77
2023/10/24 05:21:03;;;;;;;22.27;9.32;;;10.40;92.60;;;;;;6199048;28;20058;-77
2023/10/24 05:24:05;;;;;;;20.55;9.05;;;10.40;92.60;;;;;;6222529;28;20057;-77
2023/10/24 05:27:06;;;;;;;19.58;8.63;;;10.40;92.70;;;;;;6199119;28;20466;-77
2023/10/24 05:30:10;;;;;;;19.50;9.40;;;10.40;92.70;;;;;;6221590;28;20523;-78
2023/10/24 05:33:11;;;;;;;20.42;9.05;;;10.30;92.70;;;;;;6197467;28;20065;-77
2023/10/24 05:36:13;;;;;;;17.80;8.05;;;10.30;92.60;;;;;;6220919;28;20525;-77
2023/10/24 05:39:15;;;;;;;19.40;8.35;;;10.30;92.60;;;;;;6198678;28;20421;-77
2023/10/24 05:42:17;;;;;;;21.55;9.48;;;10.30;92.60;;;;;;6222083;28;20076;-77
2023/10/24 05:45:21;;;;;;;21.55;8.38;;;10.30;92.70;;;;;;6210236;28;20053;-77
2023/10/24 05:48:23;;;;;;;21.05;9.40;;;10.30;92.80;;;;;;6198191;28;20053;-78
2023/10/24 05:51:25;;;;;;;22.38;8.75;;;10.40;92.80;;;;;;6221874;28;20057;-77
2023/10/24 05:54:27;;;;;;;22.88;9.65;;;10.40;92.80;;;;;;6198442;28;20502;-78
2023/10/24 05:57:29;;;;;;;21.95;10.68;;;10.30;92.80;;;;;;6221529;28;20433;-77
2023/10/24 06:00:30;;;;;;;21.98;11.75;;;10.30;92.70;;;;;;6192130;28;20058;-77
2023/10/24 06:03:32;;;;;;;22.83;11.57;;;10.20;92.70;;;;;;6222305;28;20058;-76
2023/10/24 06:06:33;;;;;;;23.02;12.50;;;10.20;92.80;;;;;;6209987;28;20620;-76
2023/10/24 06:09:35;;;;;;;19.30;10.88;;;10.20;92.80;;;;;;6198480;28;20050;-77
2023/10/24 06:12:37;;;;;;;18.02;10.43;;;10.20;92.90;;;;;;6220074;28;20128;-78
2023/10/24 06:15:38;;;;;;;17.70;10.43;;;10.10;92.90;;;;;;6193698;28;20058;-77
2023/10/24 06:18:40;;;;;;;16.73;9.90;;;10.10;92.90;;;;;;6173451;28;20229;-76
2023/10/24 06:21:41;;;;;;;16.13;9.05;;;10.10;92.90;;;;;;6220486;28;20137;-77
2023/10/24 06:24:43;;;;;;;15.75;9.23;;;10.10;92.90;;;;;;6197523;28;20745;-77
2023/10/24 06:27:44;;;;;;;15.85;9.20;;;10.10;92.90;;;;;;6218740;28;20054;-76
2023/10/24 06:30:46;;;;;;;15.38;8.77;;;10.10;93.00;;;;;;6196883;28;20050;-77
2023/10/24 06:33:48;;;;;;;16.33;8.75;;;10.20;93.00;;;;;;6173545;28;20065;-77
2023/10/24 06:36:49;;;;;;;14.57;8.65;;;10.20;93.00;;;;;;6220294;28;20061;-77
2023/10/24 06:39:51;;;;;;;17.15;9.00;;;10.20;93.00;;;;;;6197272;28;20144;-77
2023/10/24 06:42:52;;;;;;;19.27;9.35;;;10.20;93.00;;;;;;6217134;28;20057;-77
2023/10/24 06:45:54;;;;;;;17.98;10.05;;;10.20;93.00;;;;;;6213788;28;20064;-77
2023/10/24 06:48:56;;;;;;;17.73;9.75;;;10.30;93.10;;;;;;6197167;28;20053;-78
2023/10/24 06:51:58;;;;;;;16.58;9.15;;;10.30;93.10;;;;;;6220026;28;20050;-77
2023/10/24 06:54:59;;;;;;;21.02;9.68;;;10.30;93.10;;;;;;6195780;28;20058;-78
2023/10/24 06:58:01;;;;;;;18.02;8.90;;;10.30;93.10;;;;;;6211746;28;20042;-77
2023/10/24 07:01:02;;;;;;;16.38;9.02;;;10.40;93.10;;;;;;6197050;28;20089;-77
2023/10/24 07:04:04;;;;;;;14.63;8.60;;;10.40;93.20;;;;;;6172438;28;20498;-77
2023/10/24 07:07:06;;;;;;;17.05;8.57;;;10.40;93.20;;;;;;6200670;28;20050;-78
2023/10/24 07:10:07;;;;;;;16.08;8.32;;;10.50;93.20;;;;;;6219878;28;20054;-78
2023/10/24 07:13:11;;;;;;;15.02;7.25;;;10.50;93.40;;;;;;6195334;28;20049;-78
2023/10/24 07:16:12;;;;;;;13.93;5.85;;;10.50;93.20;;;;;;6220469;28;20064;-78
2023/10/24 07:19:15;;;;;;;14.50;7.03;;;10.40;93.10;;;;;;6195181;28;20054;-78
2023/10/24 07:22:16;;;;;;;14.75;7.15;;;10.50;93.10;;;;;;6219470;28;20049;-78
2023/10/24 07:25:18;;;;;;;15.45;7.18;;;10.40;93.10;;;;;;6195883;28;20426;-79
2023/10/24 07:28:19;;;;;;;14.93;6.85;;;10.30;93.10;;;;;;6209879;28;20053;-78
2023/10/24 07:31:21;;;;;;;15.70;7.60;;;10.40;93.10;;;;;;6195338;28;20061;-77
2023/10/24 07:34:23;;;;;;;11.57;6.13;;;10.50;93.20;;;;;;6218843;28;20128;-77
2023/10/24 07:37:24;;;;;;;17.95;7.35;;;10.60;93.20;;;;;;6195917;28;20054;-78
2023/10/24 07:40:26;;;;;;;15.55;6.95;;;10.60;93.20;;;;;;6218875;28;20054;-77
2023/10/24 07:43:28;;;;;;;13.18;6.93;;;10.60;93.20;;;;;;6200325;28;20132;-76
2023/10/24 07:46:29;;;;;;;14.70;6.88;;;10.70;93.20;;;;;;6219377;28;20077;-76
2023/10/24 07:49:31;;;;;;;13.38;7.40;;;10.70;93.20;;;;;;6195608;28;20092;-77
2023/10/24 07:52:33;;;;;;;15.18;7.72;;;10.70;93.20;;;;;;6218600;28;20046;-77
2023/10/24 07:55:34;;;;;;;16.70;7.45;;;10.80;93.10;;;;;;6195102;28;20058;-77
2023/10/24 07:58:36;;;;;;;14.82;7.10;;;10.80;93.10;;;;;;6209831;28;20050;-77
2023/10/24 08:01:38;;;;;;;17.73;7.97;;;10.90;93.10;;;;;;6215305;28;20061;-78
2023/10/24 08:04:40;;;;;;;15.82;7.95;;;10.90;93.00;;;;;;6195915;28;20050;-77
2023/10/24 08:07:42;;;;;;;15.80;7.72;;;11.10;93.20;;;;;;6218933;28;20053;-77
2023/10/24 08:10:43;;;;;;;15.80;7.32;;;11.10;93.10;;;;;;6195610;28;20191;-77
2023/10/24 08:13:45;;;;;;;17.25;8.18;;;11.20;93.10;;;;;;6205946;28;20093;-76
2023/10/24 08:16:47;;;;;;;19.05;8.57;;;11.20;92.70;;;;;;6193600;28;20050;-76
2023/10/24 08:19:49;;;;;;;17.23;8.40;;;11.10;92.50;;;;;;6211917;28;20082;-79
2023/10/24 08:22:51;;;;;;;16.67;8.30;;;11.20;92.80;;;;;;6216704;28;20093;-76
2023/10/24 08:25:53;;;;;;;19.75;8.80;;;11.30;92.90;;;;;;6194770;28;20050;-76
2023/10/24 08:28:54;;;;;;;19.90;8.05;;;11.40;92.80;;;;;;6201909;28;20069;-75
2023/10/24 08:31:56;;;;;;;18.65;8.27;;;11.40;92.80;;;;;;6218242;28;20558;-76
2023/10/24 08:35:02;;;;;;;16.42;7.50;;;11.50;92.50;;;;;;6194488;28;20054;-76
2023/10/24 08:38:03;;;;;;;15.77;6.50;;;11.50;92.40;;;;;;6207311;28;20098;-79
2023/10/24 08:41:05;;;;;;;16.58;6.78;;;11.50;92.50;;;;;;6200915;28;20097;-77
2023/10/24 08:44:07;;;;;;;12.95;5.43;;;11.60;92.60;;;;;;6206100;28;20502;-78
2023/10/24 08:47:09;;;;;;;11.70;5.43;;;11.70;92.30;;;;;;6223620;28;20054;-79
2023/10/24 08:50:11;;;;;;;15.32;6.28;;;12.10;93.00;;;;;;6198481;28;20493;-76
2023/10/24 08:53:14;;;;;;;11.95;5.07;;;12.30;92.20;;;;;;6222615;28;20425;-79
2023/10/24 08:56:15;;;;;;;10.57;5.55;;;12.60;92.00;;;;;;6197962;28;20496;-79
2023/10/24 08:59:18;;;;;;;11.88;5.18;;;12.80;91.00;;;;;;6204054;28;20058;-79
2023/10/24 09:02:21;;;;;;;11.57;4.65;;;12.80;89.70;;;;;;6202594;28;20057;-79
2023/10/24 09:05:22;;;;;;;11.90;5.50;;;12.90;89.10;;;;;;6222402;28;20053;-78
2023/10/24 09:08:24;;;;;;;9.63;4.70;;;13.00;90.70;;;;;;6200410;28;20061;-85
2023/10/24 09:11:26;;;;;;;10.65;5.18;;;13.10;85.00;;;;;;6222546;28;20053;-81
2023/10/24 09:14:30;;;;;;;11.68;5.25;;;13.10;88.80;;;;;;6211597;28;20528;-77
2023/10/24 09:17:45;;;;;;;9.93;4.50;;;13.00;88.70;;;;;;6199263;28;20046;-77
2023/10/24 09:20:47;;;;;;;8.73;5.20;;;12.80;84.30;;;;;;6221611;28;20060;-77
2023/10/24 09:23:48;;;;;;;9.05;4.70;;;12.80;84.80;;;;;;6198952;28;20042;-80
2023/10/24 09:26:51;;;;;;;9.65;4.40;;;12.90;85.60;;;;;;6221950;28;20057;-79
2023/10/24 09:29:52;;;;;;;10.73;4.85;;;13.00;85.10;;;;;;6196024;28;20061;-80
2023/10/24 09:32:54;;;;;;;9.55;4.57;;;13.10;86.00;;;;;;6221816;28;20050;-80
2023/10/24 09:35:56;;;;;;;11.05;5.32;;;13.20;84.50;;;;;;6198265;28;20054;-80
2023/10/24 09:39:14;;;;;;;9.23;5.20;;;13.40;82.10;;;;;;6222091;28;20176;-80
2023/10/24 09:42:15;;;;;;;8.88;4.90;;;13.60;82.50;;;;;;6198668;28;20058;-78
2023/10/24 09:45:17;;;;;;;7.72;3.50;;;13.80;77.90;;;;;;6200007;28;20062;-82
2023/10/24 09:48:21;;;;;;;7.43;3.78;;;15.00;88.90;;;;;;6221828;28;20053;-83
2023/10/24 09:51:23;;;;;;;6.05;3.50;;;15.90;68.40;;;;;;6197742;28;20054;-77
2023/10/24 09:54:25;;;;;;;5.90;3.17;;;16.70;47.60;;;;;;6221185;28;20050;-78
2023/10/24 09:57:26;;;;;;;5.80;3.33;;;17.30;37.50;;;;;;6197500;28;20061;-79
2023/10/24 10:00:28;;;;;;;6.15;3.50;;;17.40;25.80;;;;;;6212499;28;20057;-81
2023/10/24 10:03:30;;;;;;;6.30;3.40;;;17.20;32.50;;;;;;6197587;28;20089;-85
2023/10/24 10:06:32;;;;;;;6.00;2.95;;;16.90;35.30;;;;;;6219719;28;20057;-81
2023/10/24 10:09:53;;;;;;;7.68;3.20;;;16.80;27.40;;;;;;6196679;28;20215;-79
2023/10/24 10:12:55;;;;;;;4.93;3.00;;;16.40;31.70;;;;;;6216716;28;20054;-81
2023/10/24 10:15:57;;;;;;;5.53;2.80;;;16.30;28.70;;;;;;6197824;28;20374;-82
2023/10/24 10:19:01;;;;;;;5.05;2.80;;;15.90;36.80;;;;;;6222464;28;20061;-79
2023/10/24 10:22:02;;;;;;;4.97;2.60;;;16.00;32.40;;;;;;6197779;28;20062;-80
2023/10/24 10:25:04;;;;;;;4.78;2.92;;;16.60;35.00;;;;;;6220888;28;20062;-89
2023/10/24 10:28:05;;;;;;;4.88;2.70;;;16.40;33.80;;;;;;6216572;28;20524;-82
2023/10/24 10:31:07;;;;;;;4.43;2.40;;;15.90;20.20;;;;;;6196260;28;20077;-81
2023/10/24 10:34:28;;;;;;;5.13;2.10;;;15.70;31.10;;;;;;6176553;28;20054;-88
2023/10/24 10:37:30;;;;;;;5.88;2.63;;;15.40;20.50;;;;;;6236597;28;20064;-77
2023/10/24 10:40:33;;;;;;;3.90;1.90;;;15.30;36.60;;;;;;6205314;28;20114;-89
2023/10/24 10:43:35;;;;;;;4.38;2.13;;;15.30;28.50;;;;;;6235510;28;20053;-81
2023/10/24 10:46:36;;;;;;;4.22;2.08;;;16.20;39.70;;;;;;6237681;28;20061;-89
2023/10/24 10:49:39;;;;;;;4.75;2.30;;;17.10;14.50;;;;;;6204797;28;20058;-79
2023/10/24 10:52:40;;;;;;;6.05;2.10;;;17.40;18.60;;;;;;6220359;28;20096;-80
2023/10/24 10:55:42;;;;;;;4.70;2.00;;;18.10;1.00;;;;;;6197503;28;20050;-77
2023/10/24 10:58:44;;;;;;;6.80;2.22;;;17.70;1.00;;;;;;6206089;28;20054;-77
2023/10/24 11:01:45;;;;;;;4.75;2.28;;;17.20;1.00;;;;;;6205320;28;20046;-86
2023/10/24 11:04:47;;;;;;;5.30;2.10;;;17.00;12.40;;;;;;6219879;28;20054;-90
2023/10/24 11:07:50;;;;;;;5.00;2.15;;;16.90;3.50;;;;;;6215336;28;20062;-80
2023/10/24 11:10:52;;;;;;;5.05;2.28;;;17.40;1.00;;;;;;6194807;28;20057;-77
2023/10/24 11:13:54;;;;;;;5.38;1.90;;;18.10;1.00;;;;;;6205512;28;20569;-80
2023/10/24 11:16:56;;;;;;;4.40;1.60;;;18.50;1.00;;;;;;6219392;28;20443;-79
2023/10/24 11:19:58;;;;;;;5.53;1.98;;;18.50;1.00;;;;;;6197095;28;20494;-92
2023/10/24 11:23:19;;;;;;;3.60;1.67;;;18.60;1.00;;;;;;6223340;28;20184;-87
2023/10/24 11:26:20;;;;;;;6.13;1.55;;;18.80;1.00;;;;;;6206106;28;20046;-82
2023/10/24 11:29:22;;;;;;;7.97;1.60;;;19.40;1.00;;;;;;6209159;28;20060;-92
2023/10/24 11:32:24;;;;;;;4.63;1.63;;;19.20;1.00;;;;;;6199140;28;20066;-80
2023/10/24 11:35:25;;;;;;;7.88;1.40;;;18.80;1.00;;;;;;6223389;28;20081;-92
2023/10/24 11:38:27;;;;;;;5.70;1.40;;;17.90;1.00;;;;;;6197175;28;20136;-78
2023/10/24 11:41:29;;;;;;;5.53;1.40;;;17.80;1.00;;;;;;6219469;28;20072;-87
2023/10/24 11:44:30;;;;;;;3.78;1.30;;;17.70;1.00;;;;;;6210490;28;20151;-83
2023/10/24 11:47:32;;;;;;;5.32;1.48;;;17.30;1.00;;;;;;6213359;28;20054;-83
2023/10/24 11:50:34;;;;;;;8.73;1.30;;;17.10;1.00;;;;;;6206400;28;20057;-88
2023/10/24 11:53:35;;;;;;;5.85;1.10;;;18.00;1.00;;;;;;6220296;28;20057;-83
2023/10/24 11:56:37;;;;;;;3.78;1.38;;;17.50;1.00;;;;;;6219569;28;20053;-82
2023/10/24 11:59:40;;;;;;;3.63;1.30;;;17.60;1.00;;;;;;6193178;28;20089;-82
2023/10/24 12:02:42;;;;;;;5.93;1.02;;;18.00;1.00;;;;;;6196753;28;20061;-85
2023/10/24 12:05:44;;;;;;;5.20;1.20;;;18.30;1.00;;;;;;6202105;28;20046;-80
2023/10/24 12:08:45;;;;;;;4.70;1.23;;;18.80;1.00;;;;;;6218864;28;20433;-85
2023/10/24 12:11:47;;;;;;;3.78;1.20;;;19.40;1.00;;;;;;6197317;28;20418;-78
2023/10/24 12:14:48;;;;;;;5.75;1.55;;;20.20;1.00;;;;;;6216840;28;20137;-88
2023/10/24 12:17:50;;;;;;;6.47;1.10;;;20.20;1.00;;;;;;6197790;28;20065;-90
2023/10/24 12:20:52;;;;;;;4.53;1.45;;;20.10;1.00;;;;;;6219216;28;20056;-81
2023/10/24 12:23:54;;;;;;;2.67;1.02;;;20.20;1.00;;;;;;6198671;28;20057;-90
2023/10/24 12:26:55;;;;;;;5.25;1.40;;;20.70;1.00;;;;;;6195819;28;20053;-88
2023/10/24 12:29:57;;;;;;;3.22;1.20;;;20.60;1.00;;;;;;6180819;28;20058;-82
2023/10/24 12:32:59;;;;;;;5.15;1.20;;;21.10;1.00;;;;;;6218124;28;20054;-80
2023/10/24 12:36:01;;;;;;;3.85;1.20;;;21.00;1.00;;;;;;6193186;28;20141;-82
2023/10/24 12:39:03;;;;;;;6.10;1.23;;;20.70;1.00;;;;;;6194470;28;20069;-83
2023/10/24 12:42:04;;;;;;;2.75;1.20;;;20.00;1.00;;;;;;6173598;28;20109;-80
2023/10/24 12:45:06;;;;;;;7.95;1.10;;;19.90;1.00;;;;;;6207858;28;20120;-79
2023/10/24 12:48:11;;;;;;;5.80;1.27;;;19.60;1.00;;;;;;6194787;28;20450;-83
2023/10/24 12:51:13;;;;;;;4.50;1.20;;;19.00;1.00;;;;;;6216780;28;20175;-80
2023/10/24 12:54:15;;;;;;;7.25;1.20;;;19.10;1.00;;;;;;6197379;28;20494;-82
2023/10/24 12:57:18;;;;;;;4.47;1.20;;;19.40;1.00;;;;;;6194819;28;20109;-79
2023/10/24 13:00:19;;;;;;;4.95;1.30;;;20.00;1.00;;;;;;6180914;28;20050;-79
2023/10/24 13:03:21;;;;;;;3.38;1.02;;;19.90;1.00;;;;;;6218954;28;20046;-83
2023/10/24 13:06:23;;;;;;;3.22;1.23;;;20.00;1.00;;;;;;6215619;28;20061;-90
2023/10/24 13:09:25;;;;;;;8.75;1.40;;;20.30;1.00;;;;;;6193998;28;20505;-85
2023/10/24 13:12:27;;;;;;;5.38;1.27;;;20.70;1.00;;;;;;6219278;28;20057;-86
2023/10/24 13:15:29;;;;;;;5.00;1.25;;;20.40;1.00;;;;;;6193241;28;20062;-84
2023/10/24 13:18:30;;;;;;;6.60;1.73;;;19.50;1.00;;;;;;6218051;28;20050;-82
2023/10/24 13:21:32;;;;;;;4.50;1.30;;;18.70;1.00;;;;;;6220491;28;20151;-81
2023/10/24 13:24:34;;;;;;;6.18;1.25;;;19.10;1.00;;;;;;6196428;28;20050;-82
2023/10/24 13:27:35;;;;;;;4.63;0.93;;;19.70;1.00;;;;;;6216913;28;20069;-82
2023/10/24 13:30:37;;;;;;;2.90;0.93;;;20.00;1.00;;;;;;6190758;28;20132;-88
2023/10/24 13:33:48;;;;;;;4.60;1.10;;;19.70;1.00;;;;;;6189102;28;20112;-81
2023/10/24 13:37:09;;;;;;;4.40;1.00;;;18.60;1.00;;;;;;6179603;28;20144;-91
2023/10/24 13:40:11;;;;;;;6.22;0.98;;;17.50;1.00;;;;;;6202780;28;20054;-88
2023/10/24 13:43:13;;;;;;;5.90;1.00;;;17.50;1.00;;;;;;6181203;28;20576;-82
2023/10/24 13:46:14;;;;;;;4.25;0.90;;;17.80;1.00;;;;;;6200904;28;20477;-87
2023/10/24 13:49:16;;;;;;;3.70;0.90;;;17.90;1.00;;;;;;6224668;28;20054;-78
2023/10/24 13:52:18;;;;;;;6.18;1.15;;;18.60;1.00;;;;;;6198262;28;20069;-78
2023/10/24 13:55:19;;;;;;;5.75;1.20;;;19.50;1.00;;;;;;6221141;28;20474;-78
2023/10/24 13:58:21;;;;;;;4.20;1.20;;;19.80;1.00;;;;;;6201322;28;20057;-79
2023/10/24 14:01:22;;;;;;;4.20;0.90;;;19.60;1.00;;;;;;6222467;28;20060;-79
2023/10/24 14:04:24;;;;;;;3.40;0.90;;;19.40;1.00;;;;;;6201526;28;20056;-87
2023/10/24 14:07:26;;;;;;;7.20;1.02;;;18.60;1.00;;;;;;6224483;28;20050;-83
2023/10/24 14:10:28;;;;;;;5.32;1.20;;;18.30;1.00;;;;;;6198239;28;20606;-84
2023/10/24 14:13:30;;;;;;;3.72;0.80;;;18.10;1.00;;;;;;6211513;28;20486;-83
2023/10/24 14:16:32;;;;;;;3.08;1.00;;;18.30;1.00;;;;;;6221375;28;20061;-87
2023/10/24 14:19:35;;;;;;;6.35;1.33;;;18.60;1.00;;;;;;6197147;28;20061;-81
2023/10/24 14:22:37;;;;;;;4.40;1.10;;;18.70;1.00;;;;;;6221483;28;20093;-77
2023/10/24 14:25:39;;;;;;;5.93;1.10;;;18.70;1.00;;;;;;6197472;28;20057;-78
2023/10/24 14:28:41;;;;;;;4.45;0.95;;;18.70;1.00;;;;;;6206531;28;20498;-76
2023/10/24 14:31:43;;;;;;;4.20;1.05;;;18.10;1.00;;;;;;6220499;28;20060;-77
2023/10/24 14:34:47;;;;;;;4.05;1.10;;;17.40;1.00;;;;;;6196933;28;20058;-77
2023/10/24 14:37:49;;;;;;;5.55;1.10;;;16.90;1.00;;;;;;6220121;28;20453;-77
2023/10/24 14:40:50;;;;;;;4.72;0.90;;;17.30;1.00;;;;;;6202706;28;20050;-80
2023/10/24 14:43:53;;;;;;;6.75;1.00;;;17.20;1.00;;;;;;6205530;28;20418;-81
2023/10/24 14:46:54;;;;;;;4.38;1.00;;;17.20;1.00;;;;;;6220771;28;20068;-78
2023/10/24 14:49:57;;;;;;;7.78;1.30;;;17.00;1.00;;;;;;6197239;28;20077;-79
2023/10/24 14:52:58;;;;;;;5.15;1.00;;;16.80;1.00;;;;;;6220137;28;20054;-78
2023/10/24 14:56:00;;;;;;;7.00;1.27;;;16.60;1.00;;;;;;6196989;28;20058;-79
2023/10/24 15:10:03;;;;;;;4.40;1.15;;;15.90;1.00;;;;;;6170589;28;20129;-79
2023/10/24 15:13:05;;;;;;;7.30;1.30;;;15.70;1.00;;;;;;6198297;28;20057;-78
2023/10/24 15:16:07;;;;;;;8.52;1.63;;;15.70;1.00;;;;;;6222288;28;20050;-90
2023/10/24 15:19:08;;;;;;;6.72;1.20;;;15.50;1.00;;;;;;6187881;28;20055;-83
2023/10/24 15:22:10;;;;;;;8.15;1.20;;;15.50;1.00;;;;;;6234262;28;20075;-80
2023/10/24 15:25:13;;;;;;;6.07;1.00;;;15.40;1.00;;;;;;6196226;28;20058;-79
2023/10/24 15:28:15;;;;;;;5.57;1.00;;;15.40;1.00;;;;;;6210297;28;20050;-82
2023/10/24 15:31:16;;;;;;;8.35;1.25;;;15.40;1.00;;;;;;6195123;28;20065;-80
2023/10/24 15:34:18;;;;;;;5.55;1.30;;;15.40;1.00;;;;;;6221349;28;20057;-79
2023/10/24 15:37:19;;;;;;;9.55;1.83;;;15.40;1.00;;;;;;6195682;28;20500;-78
2023/10/24 15:40:21;;;;;;;7.35;1.40;;;15.40;1.00;;;;;;6220470;28;20394;-79
2023/10/24 15:43:23;;;;;;;7.97;1.40;;;15.30;1.00;;;;;;6202689;28;20049;-84
2023/10/24 15:46:24;;;;;;;5.10;1.38;;;15.30;1.00;;;;;;6223117;28;20513;-88
2023/10/24 15:49:26;;;;;;;5.20;1.23;;;15.20;16.90;;;;;;6199596;28;20057;-84
2023/10/24 15:52:28;;;;;;;6.47;1.40;;;15.10;14.30;;;;;;6218489;28;20532;-77